createdAt,value
2022-11-05T00:00:18.970Z,99403.81
2022-11-05T00:03:04.243Z,99397.28
2022-11-05T00:05:50.096Z,99410.16
2022-11-05T00:08:36.062Z,99405.00
2022-11-05T00:11:02.865Z,99393.06
2022-11-05T00:13:48.237Z,99396.47
2022-11-05T00:16:33.414Z,99402.03
2022-11-05T00:19:10.217Z,99400.25
2022-11-05T00:21:57.908Z,99395.25
2022-11-05T00:24:44.099Z,99405.41
2022-11-05T00:27:11.117Z,99416.53
2022-11-05T00:29:37.897Z,99424.09
2022-11-05T00:32:04.973Z,99422.09
2022-11-05T00:34:31.736Z,99436.03
2022-11-05T00:36:58.494Z,99429.25
2022-11-05T00:39:25.184Z,99432.84
2022-11-05T00:42:11.820Z,99434.03
2022-11-05T00:44:56.963Z,99441.56
2022-11-05T00:47:42.185Z,99447.94
2022-11-05T00:50:10.895Z,99454.28
2022-11-05T00:52:56.359Z,99457.88
2022-11-05T00:55:40.194Z,99454.84
2022-11-05T00:58:10.302Z,99451.06
2022-11-05T01:00:40.605Z,99448.88
2022-11-05T01:03:13.018Z,99435.56
2022-11-05T01:05:50.969Z,99434.00
2022-11-05T01:08:19.719Z,99450.91
2022-11-05T01:10:49.293Z,99474.56
2022-11-05T01:13:20.028Z,99484.09
2022-11-05T01:15:47.567Z,99484.53
2022-11-05T01:18:14.884Z,99478.16
2022-11-05T01:20:41.812Z,99476.78
2022-11-05T01:23:13.302Z,99472.41
2022-11-05T01:25:41.164Z,99464.69
2022-11-05T01:28:09.632Z,99467.66
2022-11-05T01:30:37.477Z,99461.50
2022-11-05T01:33:04.269Z,99468.28
2022-11-05T01:35:31.034Z,99482.19
2022-11-05T01:37:57.700Z,99462.72
2022-11-05T01:40:25.518Z,99463.50
2022-11-05T01:42:52.408Z,99461.91
2022-11-05T01:45:21.745Z,99467.50
2022-11-05T01:48:11.022Z,99455.53
2022-11-05T01:50:47.462Z,99455.97
2022-11-05T01:53:29.489Z,99449.63
2022-11-05T01:56:01.561Z,99444.06
2022-11-05T01:58:34.772Z,99442.44
2022-11-05T02:01:01.441Z,99427.69
2022-11-05T02:03:29.809Z,99447.44
2022-11-05T02:05:58.610Z,99439.66
2022-11-05T02:08:51.238Z,99448.59
2022-11-05T02:11:19.936Z,99459.56
2022-11-05T02:13:48.471Z,99454.00
2022-11-05T02:16:33.289Z,99447.03
2022-11-05T02:19:14.453Z,99451.63
2022-11-05T02:21:41.153Z,99445.81
2022-11-05T02:24:35.406Z,99455.38
2022-11-05T02:27:31.801Z,99438.06
2022-11-05T02:30:36.686Z,99427.53
2022-11-05T02:33:03.409Z,99431.69
2022-11-05T02:35:39.193Z,99442.25
2022-11-05T02:38:47.661Z,99449.78
2022-11-05T02:41:38.278Z,99462.34
2022-11-05T02:44:34.094Z,99459.16
2022-11-05T02:47:44.595Z,99455.16
2022-11-05T02:50:14.342Z,99462.34
2022-11-05T02:52:55.028Z,99473.28
2022-11-05T02:55:45.066Z,99465.53
2022-11-05T02:58:11.851Z,99460.75
2022-11-05T03:00:51.896Z,99461.97
2022-11-05T03:03:39.944Z,99465.53
2022-11-05T03:06:25.174Z,99477.47
2022-11-05T03:09:17.698Z,99469.72
2022-11-05T03:12:06.528Z,99479.84
2022-11-05T03:14:55.477Z,99477.06
2022-11-05T03:17:27.827Z,99464.31
2022-11-05T03:20:03.086Z,99462.72
2022-11-05T03:22:36.829Z,99462.72
2022-11-05T03:25:05.833Z,99465.69
2022-11-05T03:27:37.561Z,99477.66
2022-11-05T03:30:09.382Z,99469.91
2022-11-05T03:32:46.753Z,99473.06
2022-11-05T03:35:18.627Z,99463.75
2022-11-05T03:37:48.386Z,99463.31
2022-11-05T03:42:49.602Z,99461.97
2022-11-05T03:45:21.655Z,99469.53
2022-11-05T03:47:52.044Z,99460.75
2022-11-05T03:50:37.140Z,99470.34
2022-11-05T03:53:17.859Z,99486.22
2022-11-05T03:56:22.948Z,99478.25
2022-11-05T03:58:54.685Z,99484.25
2022-11-05T04:01:25.376Z,99478.84
2022-11-05T04:03:52.172Z,99500.94
2022-11-05T04:06:37.734Z,99488.19
2022-11-05T04:09:22.802Z,99489.00
2022-11-05T04:12:08.094Z,99471.50
2022-11-05T04:14:34.832Z,99466.28
2022-11-05T04:17:07.417Z,99455.16
2022-11-05T04:19:57.267Z,99465.50
2022-11-05T04:22:44.051Z,99461.31
2022-11-05T04:25:11.765Z,99467.47
2022-11-05T04:27:39.073Z,99471.41
2022-11-05T04:30:18.464Z,99482.19
2022-11-05T04:33:06.433Z,99495.84
2022-11-05T04:35:44.960Z,99492.09
2022-11-05T04:38:17.224Z,99494.66
2022-11-05T04:40:45.463Z,99512.97
2022-11-05T04:43:18.806Z,99519.91
2022-11-05T04:45:46.574Z,99519.91
2022-11-05T04:48:13.447Z,99540.00
2022-11-05T04:50:40.681Z,99531.25
2022-11-05T04:53:07.587Z,99532.00
2022-11-05T04:55:34.395Z,99514.72
2022-11-05T04:58:01.051Z,99522.66
2022-11-05T05:00:27.774Z,99540.75
2022-11-05T05:02:54.627Z,99541.59
2022-11-05T05:05:23.171Z,99536.22
2022-11-05T05:07:49.951Z,99529.50
2022-11-05T05:10:16.738Z,99526.50
2022-11-05T05:12:43.480Z,99516.78
2022-11-05T05:15:10.161Z,99519.56
2022-11-05T05:17:36.835Z,99526.56
2022-11-05T05:20:22.410Z,99537.94
2022-11-05T05:22:53.549Z,99519.03
2022-11-05T05:25:20.829Z,99523.81
2022-11-05T05:27:47.500Z,99530.56
2022-11-05T05:30:14.287Z,99536.75
2022-11-05T05:32:41.054Z,99555.66
2022-11-05T05:35:08.126Z,99562.19
2022-11-05T05:37:34.856Z,99562.59
2022-11-05T05:40:02.772Z,99577.31
2022-11-05T05:42:30.254Z,99575.38
2022-11-05T05:44:57.306Z,99588.31
2022-11-05T05:47:24.047Z,99582.13
2022-11-05T05:49:50.713Z,99575.75
2022-11-05T05:52:18.924Z,99583.31
2022-11-05T05:54:45.563Z,99567.03
2022-11-05T05:57:12.232Z,99585.53
2022-11-05T05:59:38.906Z,99579.78
2022-11-05T06:02:05.674Z,99582.97
2022-11-05T06:04:32.432Z,99594.91
2022-11-05T06:06:59.116Z,99589.34
2022-11-05T06:09:25.842Z,99582.97
2022-11-05T06:11:52.520Z,99583.78
2022-11-05T06:14:19.185Z,99599.72
2022-11-05T06:16:45.808Z,99606.28
2022-11-05T06:19:12.479Z,99616.84
2022-11-05T06:21:39.145Z,99631.63
2022-11-05T06:24:06.071Z,99620.84
2022-11-05T06:26:32.961Z,99635.97
2022-11-05T06:28:59.658Z,99627.66
2022-11-05T06:31:26.302Z,99632.84
2022-11-05T06:33:53.245Z,99631.03
2022-11-05T06:36:20.512Z,99631.06
2022-11-05T06:38:47.384Z,99640.22
2022-11-05T06:41:14.434Z,99643.78
2022-11-05T06:43:41.186Z,99636.25
2022-11-05T06:46:11.228Z,99648.22
2022-11-05T06:48:38.804Z,99650.19
2022-11-05T06:51:06.661Z,99648.41
2022-11-05T06:53:33.423Z,99649.81
2022-11-05T06:56:06.961Z,99667.13
2022-11-05T06:58:34.365Z,99638.84
2022-11-05T07:01:09.973Z,99675.13
2022-11-05T07:03:38.083Z,99657.38
2022-11-05T07:06:06.935Z,99670.72
2022-11-05T07:08:36.621Z,99664.75
2022-11-05T07:11:03.970Z,99677.09
2022-11-05T07:13:30.809Z,99670.72
2022-11-05T07:15:58.037Z,99685.44
2022-11-05T07:18:25.172Z,99679.88
2022-11-05T07:20:51.977Z,99675.88
2022-11-05T07:23:18.866Z,99685.63
2022-11-05T07:25:45.781Z,99678.22
2022-11-05T07:28:14.428Z,99683.03
2022-11-05T07:30:41.507Z,99675.81
2022-11-05T07:33:08.896Z,99677.84
2022-11-05T07:35:36.634Z,99679.41
2022-11-05T07:38:04.184Z,99664.03
2022-11-05T07:40:31.242Z,99677.78
2022-11-05T07:42:59.971Z,99679.78
2022-11-05T07:45:28.107Z,99683.72
2022-11-05T07:47:57.305Z,99690.94
2022-11-05T07:50:26.297Z,99684.97
2022-11-05T07:52:53.144Z,99696.50
2022-11-05T07:55:20.950Z,99697.69
2022-11-05T07:57:51.270Z,99707.22
2022-11-05T08:00:21.589Z,99706.34
2022-11-05T08:03:18.207Z,99703.34
2022-11-05T08:05:47.446Z,99703.47
2022-11-05T08:08:17.444Z,99699.22
2022-11-05T08:10:45.825Z,99709.72
2022-11-05T08:13:13.692Z,99707.31
2022-11-05T08:15:41.013Z,99711.03
2022-11-05T08:18:12.942Z,99700.00
2022-11-05T08:20:40.802Z,99705.47
2022-11-05T08:23:08.468Z,99701.00
2022-11-05T08:25:37.214Z,99703.72
2022-11-05T08:28:07.828Z,99707.03
2022-11-05T08:30:35.918Z,99704.13
2022-11-05T08:33:12.626Z,99698.22
2022-11-05T08:35:40.313Z,99697.81
2022-11-05T08:38:09.100Z,99701.75
2022-11-05T08:40:37.160Z,99712.66
2022-11-05T08:43:06.772Z,99705.34
2022-11-05T08:45:34.470Z,99690.41
2022-11-05T08:48:14.958Z,99701.44
2022-11-05T08:50:42.068Z,99713.03
2022-11-05T08:53:10.277Z,99710.47
2022-11-05T08:55:38.583Z,99711.53
2022-11-05T08:58:13.898Z,99720.81
2022-11-05T09:00:43.467Z,99726.22
2022-11-05T09:03:10.856Z,99726.00
2022-11-05T09:05:39.659Z,99734.59
2022-11-05T09:08:08.110Z,99727.22
2022-11-05T09:10:35.271Z,99730.38
2022-11-05T09:13:02.425Z,99725.34
2022-11-05T09:15:30.476Z,99733.44
2022-11-05T09:17:57.491Z,99736.44
2022-11-05T09:20:24.805Z,99744.25
2022-11-05T09:22:51.714Z,99740.56
2022-11-05T09:25:18.496Z,99744.94
2022-11-05T09:27:45.299Z,99743.38
2022-11-05T09:30:13.277Z,99752.84
2022-11-05T09:32:40.330Z,99749.53
2022-11-05T09:35:08.470Z,99740.75
2022-11-05T09:37:36.385Z,99749.44
2022-11-05T09:40:03.260Z,99745.44
2022-11-05T09:42:38.912Z,99742.88
2022-11-05T09:45:15.276Z,99752.13
2022-11-05T09:47:49.563Z,99747.22
2022-11-05T09:50:22.463Z,99749.91
2022-11-05T09:52:49.394Z,99745.78
2022-11-05T09:55:33.439Z,99744.97
2022-11-05T09:58:03.601Z,99744.13
2022-11-05T10:00:32.687Z,99748.75
2022-11-05T10:03:04.626Z,99737.00
2022-11-05T10:05:33.338Z,99745.09
2022-11-05T10:08:23.089Z,99739.00
2022-11-05T10:11:05.644Z,99749.91
2022-11-05T10:13:48.434Z,99748.09
2022-11-05T10:16:37.404Z,99754.38
2022-11-05T10:19:14.543Z,99757.56
2022-11-05T10:22:05.720Z,99757.28
2022-11-05T10:24:28.799Z,99751.78
2022-11-05T10:26:59.661Z,99758.66
2022-11-05T10:29:33.151Z,99769.28
2022-11-05T10:32:06.263Z,99768.69
2022-11-05T10:34:36.144Z,99769.69
2022-11-05T10:37:03.722Z,99769.44
2022-11-05T10:39:32.973Z,99770.06
2022-11-05T10:42:20.225Z,99774.03
2022-11-05T10:44:53.591Z,99778.38
2022-11-05T10:47:51.341Z,99785.31
2022-11-05T10:50:23.174Z,99793.09
2022-11-05T10:53:13.839Z,99781.81
2022-11-05T10:55:49.774Z,99782.72
2022-11-05T10:58:16.511Z,99780.44
2022-11-05T11:00:45.469Z,99780.91
2022-11-05T11:03:48.233Z,99787.88
2022-11-05T11:06:20.677Z,99782.16
2022-11-05T11:08:49.333Z,99782.41
2022-11-05T11:11:41.271Z,99784.41
2022-11-05T11:14:13.908Z,99777.31
2022-11-05T11:16:43.513Z,99795.66
2022-11-05T11:19:29.933Z,99778.09
2022-11-05T11:22:06.489Z,99777.88
2022-11-05T11:24:43.401Z,99775.22
2022-11-05T11:27:28.003Z,99781.38
2022-11-05T11:30:02.779Z,99779.38
2022-11-05T11:32:40.656Z,99780.25
2022-11-05T11:35:18.646Z,99782.16
2022-11-05T11:37:46.008Z,99777.81
2022-11-05T11:40:24.587Z,99785.97
2022-11-05T11:42:55.717Z,99783.59
2022-11-05T11:45:27.685Z,99784.38
2022-11-05T11:47:56.982Z,99780.53
2022-11-05T11:50:36.932Z,99785.59
2022-11-05T11:53:22.008Z,99779.44
2022-11-05T11:56:06.861Z,99781.44
2022-11-05T11:58:42.585Z,99767.88
2022-11-05T12:01:18.130Z,99777.72
2022-11-05T12:04:19.741Z,99775.50
2022-11-05T12:07:05.504Z,99788.34
2022-11-05T12:09:45.872Z,99779.88
2022-11-05T12:12:14.946Z,99785.94
2022-11-05T12:15:04.889Z,99786.78
2022-11-05T12:17:57.463Z,99785.63
2022-11-05T12:20:56.937Z,99787.19
2022-11-05T12:23:41.512Z,99797.47
2022-11-05T12:26:33.085Z,99791.25
2022-11-05T12:29:35.784Z,99793.88
2022-11-05T12:32:20.540Z,99798.19
2022-11-05T12:35:26.733Z,99797.41
2022-11-05T12:38:20.529Z,99807.63
2022-11-05T12:41:05.972Z,99805.00
2022-11-05T12:43:53.880Z,99815.19
2022-11-05T12:46:32.115Z,99813.81
2022-11-05T12:49:34.285Z,99811.09
2022-11-05T12:52:19.377Z,99820.25
2022-11-05T12:54:59.771Z,99815.50
2022-11-05T12:57:29.810Z,99816.06
2022-11-05T13:00:14.451Z,99823.97
2022-11-05T13:02:59.849Z,99815.91
2022-11-05T13:05:46.832Z,99813.50
2022-11-05T13:08:39.726Z,99813.69
2022-11-05T13:11:33.351Z,99819.03
2022-11-05T13:14:08.863Z,99823.38
2022-11-05T13:16:47.587Z,99828.31
2022-11-05T13:19:32.146Z,99832.84
2022-11-05T13:22:09.721Z,99835.41
2022-11-05T13:24:44.634Z,99843.06
2022-11-05T13:27:30.774Z,99840.53
2022-11-05T13:30:04.562Z,99843.31
2022-11-05T13:32:42.124Z,99847.34
2022-11-05T13:35:17.718Z,99838.84
2022-11-05T13:38:07.966Z,99840.09
2022-11-05T13:41:05.683Z,99854.47
2022-11-05T13:43:57.699Z,99850.34
2022-11-05T13:47:09.189Z,99860.06
2022-11-05T13:50:09.561Z,99864.09
2022-11-05T13:52:39.286Z,99860.38
2022-11-05T13:55:24.941Z,99876.31
2022-11-05T13:58:04.845Z,99868.41
2022-11-05T14:00:46.330Z,99876.09
2022-11-05T14:03:20.462Z,99872.94
2022-11-05T14:05:55.932Z,99886.50
2022-11-05T14:08:28.081Z,99884.25
2022-11-05T14:11:23.589Z,99883.34
2022-11-05T14:13:55.366Z,99895.41
2022-11-05T14:16:29.594Z,99895.03
2022-11-05T14:19:19.257Z,99896.47
2022-11-05T14:21:56.784Z,99894.47
2022-11-05T14:24:23.493Z,99897.06
2022-11-05T14:27:13.661Z,99901.69
2022-11-05T14:29:45.725Z,99908.69
2022-11-05T14:32:21.199Z,99918.91
2022-11-05T14:34:47.892Z,99922.28
2022-11-05T14:37:22.866Z,99913.69
2022-11-05T14:39:50.202Z,99920.50
2022-11-05T14:42:19.889Z,99914.91
2022-11-05T14:45:04.811Z,99919.97
2022-11-05T14:47:38.873Z,99918.34
2022-11-05T14:50:28.656Z,99925.94
2022-11-05T14:52:58.303Z,99926.34
2022-11-05T14:55:37.114Z,99924.75
2022-11-05T14:58:24.653Z,99935.91
2022-11-05T15:00:52.545Z,99927.09
2022-11-05T15:03:46.885Z,99933.16
2022-11-05T15:06:30.741Z,99930.91
2022-11-05T15:09:21.551Z,99939.50
2022-11-05T15:12:19.428Z,99936.38
2022-11-05T15:14:57.412Z,99942.41
2022-11-05T15:17:30.000Z,99943.16
2022-11-05T15:20:15.703Z,99945.63
2022-11-05T15:22:57.130Z,99944.03
2022-11-05T15:25:49.021Z,99948.09
2022-11-05T15:28:25.581Z,99947.50
2022-11-05T15:31:19.606Z,99959.16
2022-11-05T15:33:47.753Z,99950.28
2022-11-05T15:36:24.840Z,99960.97
2022-11-05T15:39:15.277Z,99961.75
2022-11-05T15:41:39.128Z,99963.97
2022-11-05T15:44:05.829Z,99962.78
2022-11-05T15:46:32.484Z,99963.81
2022-11-05T15:49:03.783Z,99969.03
2022-11-05T15:51:30.605Z,99977.78
2022-11-05T15:54:28.652Z,99975.78
2022-11-05T15:56:57.044Z,99975.03
2022-11-05T15:59:25.650Z,99977.63
2022-11-05T16:02:13.695Z,99970.91
2022-11-05T16:04:45.808Z,99981.09
2022-11-05T16:07:13.266Z,99975.84
2022-11-05T16:09:43.858Z,99985.50
2022-11-05T16:12:19.588Z,99980.66
2022-11-05T16:15:22.064Z,99975.09
2022-11-05T16:17:50.695Z,99982.25
2022-11-05T16:20:26.593Z,99992.25
2022-11-05T16:22:56.299Z,99995.09
2022-11-05T16:25:43.617Z,99993.84
2022-11-05T16:28:25.471Z,100000.66
2022-11-05T16:31:04.408Z,99996.25
2022-11-05T16:33:41.589Z,99990.66
2022-11-05T16:36:09.068Z,100005.47
2022-11-05T16:38:36.257Z,100014.28
2022-11-05T16:41:04.080Z,100013.84
2022-11-05T16:43:30.893Z,100019.47
2022-11-05T16:46:01.998Z,100025.28
2022-11-05T16:48:31.449Z,100027.09
2022-11-05T16:50:59.457Z,100025.09
2022-11-05T16:53:26.221Z,100029.09
2022-11-05T16:55:53.042Z,100034.69
2022-11-05T16:58:27.886Z,100042.28
2022-11-05T17:01:04.254Z,100032.50
2022-11-05T17:03:33.839Z,100050.66
2022-11-05T17:06:00.981Z,100063.06
2022-11-05T17:08:30.576Z,100055.06
2022-11-05T17:10:57.410Z,100061.88
2022-11-05T17:13:24.181Z,100061.47
2022-11-05T17:15:51.726Z,100060.25
2022-11-05T17:18:19.406Z,100059.47
2022-11-05T17:20:53.054Z,100067.25
2022-11-05T17:23:20.881Z,100070.59
2022-11-05T17:25:50.446Z,100069.81
2022-11-05T17:28:17.746Z,100063.47
2022-11-05T17:30:51.702Z,100065.25
2022-11-05T17:33:20.543Z,100063.44
2022-11-05T17:35:47.376Z,100068.81
2022-11-05T17:38:14.406Z,100068.81
2022-11-05T17:40:41.456Z,100082.44
2022-11-05T17:43:08.252Z,100087.41
2022-11-05T17:45:40.571Z,100093.78
2022-11-05T17:48:09.320Z,100100.19
2022-11-05T17:50:39.077Z,100102.22
2022-11-05T17:53:06.949Z,100111.38
2022-11-05T17:55:34.020Z,100117.00
2022-11-05T17:58:01.018Z,100108.78
2022-11-05T18:00:28.100Z,100109.56
2022-11-05T18:02:55.398Z,100119.94
2022-11-05T18:05:22.901Z,100126.13
2022-11-05T18:07:50.072Z,100115.13
2022-11-05T18:10:17.270Z,100124.94
2022-11-05T18:12:44.589Z,100119.91
2022-11-05T18:15:12.336Z,100126.47
2022-11-05T18:17:39.200Z,100124.28
2022-11-05T18:20:11.707Z,100125.91
2022-11-05T18:22:41.689Z,100129.69
2022-11-05T18:25:10.490Z,100133.63
2022-11-05T18:27:37.654Z,100133.09
2022-11-05T18:30:06.036Z,100131.28
2022-11-05T18:32:32.901Z,100135.44
2022-11-05T18:34:59.871Z,100133.63
2022-11-05T18:37:26.771Z,100132.81
2022-11-05T18:39:54.405Z,100126.03
2022-11-05T18:42:21.824Z,100140.38
2022-11-05T18:44:48.608Z,100138.38
2022-11-05T18:47:15.508Z,100142.34
2022-11-05T18:49:42.295Z,100142.78
2022-11-05T18:52:09.288Z,100145.16
2022-11-05T18:54:35.987Z,100151.94
2022-11-05T18:57:02.878Z,100140.75
2022-11-05T18:59:37.596Z,100147.53
2022-11-05T19:02:05.645Z,100157.34
2022-11-05T19:04:32.951Z,100150.56
2022-11-05T19:07:04.453Z,100156.94
2022-11-05T19:09:32.009Z,100159.56
2022-11-05T19:11:58.833Z,100161.31
2022-11-05T19:14:25.647Z,100163.69
2022-11-05T19:16:52.376Z,100170.31
2022-11-05T19:19:19.217Z,100169.91
2022-11-05T19:21:46.222Z,100171.66
2022-11-05T19:24:17.301Z,100164.47
2022-11-05T19:26:47.560Z,100177.44
2022-11-05T19:29:15.177Z,100177.03
2022-11-05T19:31:42.062Z,100179.59
2022-11-05T19:34:10.642Z,100186.75
2022-11-05T19:36:37.417Z,100190.13
2022-11-05T19:39:12.217Z,100188.91
2022-11-05T19:41:39.146Z,100190.31
2022-11-05T19:44:05.870Z,100198.03
2022-11-05T19:46:33.439Z,100203.63
2022-11-05T19:49:01.164Z,100200.59
2022-11-05T19:51:31.012Z,100206.75
2022-11-05T19:53:59.903Z,100201.19
2022-11-05T19:56:29.846Z,100209.94
2022-11-05T19:58:57.621Z,100202.75
2022-11-05T20:01:26.127Z,100211.75
2022-11-05T20:03:54.202Z,100219.31
2022-11-05T20:06:32.004Z,100224.88
2022-11-05T20:11:49.548Z,100213.25
2022-11-05T20:14:16.582Z,100227.81
2022-11-05T20:16:45.285Z,100229.69
2022-11-05T20:19:16.821Z,100228.22
2022-11-05T20:21:45.996Z,100232.19
2022-11-05T20:24:18.826Z,100223.09
2022-11-05T20:26:49.008Z,100233.41
2022-11-05T20:29:15.854Z,100230.56
2022-11-05T20:31:42.918Z,100228.59
2022-11-05T20:34:10.477Z,100230.56
2022-11-05T20:36:38.863Z,100234.94
2022-11-05T20:39:06.049Z,100233.41
2022-11-05T20:41:33.538Z,100237.78
2022-11-05T20:44:02.978Z,100237.09
2022-11-05T20:46:29.724Z,100242.78
2022-11-05T20:48:59.100Z,100230.38
2022-11-05T20:51:26.094Z,100231.78
2022-11-05T20:54:00.836Z,100230.56
2022-11-05T20:56:30.139Z,100238.59
2022-11-05T20:58:58.509Z,100237.59
2022-11-05T21:01:26.914Z,100234.59
2022-11-05T21:03:54.425Z,100234.47
2022-11-05T21:06:22.673Z,100240.75
2022-11-05T21:08:51.181Z,100241.09
2022-11-05T21:11:19.128Z,100239.31
2022-11-05T21:13:48.407Z,100243.91
2022-11-05T21:16:18.439Z,100243.97
2022-11-05T21:18:46.133Z,100247.81
2022-11-05T21:21:18.379Z,100250.41
2022-11-05T21:23:47.138Z,100253.19
2022-11-05T21:26:15.367Z,100248.81
2022-11-05T21:28:42.580Z,100259.03
2022-11-05T21:31:10.098Z,100256.06
2022-11-05T21:33:37.612Z,100264.44
2022-11-05T21:36:09.606Z,100257.25
2022-11-05T21:38:36.622Z,100256.06
2022-11-05T21:41:04.361Z,100257.06
2022-11-05T21:43:31.167Z,100266.63
2022-11-05T21:46:02.156Z,100246.63
2022-11-05T21:48:28.913Z,100252.41
2022-11-05T21:51:14.373Z,100258.38
2022-11-05T21:53:59.763Z,100245.56
2022-11-05T21:56:46.607Z,100255.03
2022-11-05T21:59:34.625Z,100258.97
2022-11-05T22:02:03.584Z,100249.78
2022-11-05T22:04:37.435Z,100252.50
2022-11-05T22:07:05.696Z,100258.66
2022-11-05T22:09:33.991Z,100251.50
2022-11-05T22:12:01.627Z,100249.09
2022-11-05T22:14:28.920Z,100257.94
2022-11-05T22:16:56.167Z,100251.75
2022-11-05T22:19:24.718Z,100254.41
2022-11-05T22:21:51.743Z,100257.56
2022-11-05T22:24:19.789Z,100261.31
2022-11-05T22:26:47.494Z,100260.53
2022-11-05T22:29:14.288Z,100255.59
2022-11-05T22:31:41.269Z,100264.78
2022-11-05T22:34:12.744Z,100263.13
2022-11-05T22:36:42.000Z,100260.78
2022-11-05T22:39:09.607Z,100268.91
2022-11-05T22:41:36.328Z,100270.97
2022-11-05T22:44:03.647Z,100270.34
2022-11-05T22:46:31.102Z,100277.13
2022-11-05T22:49:01.106Z,100267.56
2022-11-05T22:51:30.540Z,100276.94
2022-11-05T22:53:58.284Z,100272.81
2022-11-05T22:56:28.116Z,100281.19
2022-11-05T22:58:55.063Z,100278.38
2022-11-05T23:01:23.078Z,100277.19
2022-11-05T23:03:52.581Z,100280.78
2022-11-05T23:06:43.537Z,100281.91
2022-11-05T23:09:36.606Z,100285.09
2022-11-05T23:12:06.227Z,100278.75
2022-11-05T23:14:33.160Z,100274.72
2022-11-05T23:17:18.605Z,100282.75
2022-11-05T23:20:03.845Z,100280.75
2022-11-05T23:22:50.680Z,100274.31
2022-11-05T23:25:21.525Z,100269.81
2022-11-05T23:27:51.162Z,100267.84
2022-11-05T23:30:26.020Z,100272.78
2022-11-05T23:32:55.687Z,100277.97
2022-11-05T23:35:42.404Z,100279.19
2022-11-05T23:38:27.549Z,100286.09
2022-11-05T23:41:18.101Z,100282.63
2022-11-05T23:44:03.116Z,100273.50
2022-11-05T23:46:48.907Z,100277.09
2022-11-05T23:49:15.687Z,100282.63
2022-11-05T23:51:42.411Z,100280.84
2022-11-05T23:54:09.113Z,100281.47
2022-11-05T23:56:36.481Z,100282.03
2022-11-05T23:59:04.901Z,100285.84
